Weather at Brownwood Regional Airport

Public forecast

Using degrees Fahrenheit for public forecast. Weather courtesy of forecast.io.

Current aviation weather report (METAR) for Brownwood Regional Airport

Retrieved 2020/09/20 19:35 UTC (3 minutes ago):

KBWD 201935Z AUTO 07008G14KT 040V100 10SM CLR 26/10 A3012 RMK AO1

Closest aviation forecast (TAF) to Brownwood Regional Airport

Closest forecast is Curtis Field, 41.4 nm (76.7 km) SSW. Retrieved 2020/09/20 18:22 UTC (1 hour ago):

TAF KBBD 201720Z 2018/2118 05009KT P6SM SKC FM211300 05005KT P6SM BKN020